createdAt,value
2019-06-07T00:00:38.654Z,16.09
2019-06-07T00:01:23.322Z,16.00
2019-06-07T00:02:22.312Z,16.02
2019-06-07T00:03:29.733Z,16.03
2019-06-07T00:04:23.284Z,15.90
2019-06-07T00:05:22.333Z,15.85
2019-06-07T00:06:25.637Z,15.90
2019-06-07T00:07:22.264Z,15.90
2019-06-07T00:08:28.069Z,15.88
2019-06-07T00:09:23.232Z,15.84
2019-06-07T00:10:35.927Z,15.91
2019-06-07T00:11:23.211Z,15.80
2019-06-07T00:12:22.201Z,15.81
2019-06-07T00:13:22.205Z,15.78
2019-06-07T00:14:22.175Z,15.85
2019-06-07T00:15:28.597Z,15.78
2019-06-07T00:16:23.611Z,15.83
2019-06-07T00:17:22.144Z,15.83
2019-06-07T00:18:25.917Z,15.83
2019-06-07T00:19:22.119Z,15.85
2019-06-07T00:20:23.666Z,15.80
2019-06-07T00:22:12.220Z,15.83
2019-06-07T00:22:32.202Z,15.73
2019-06-07T00:23:23.166Z,15.73
2019-06-07T00:24:22.297Z,15.83
2019-06-07T00:25:24.462Z,15.78
2019-06-07T00:26:22.128Z,15.68
2019-06-07T00:27:22.642Z,15.59
2019-06-07T00:28:22.016Z,15.59
2019-06-07T00:29:22.227Z,15.51
2019-06-07T00:30:50.700Z,15.40
2019-06-07T00:31:24.755Z,15.45
2019-06-07T00:32:22.393Z,15.47
2019-06-07T00:33:24.568Z,15.40
2019-06-07T00:34:23.170Z,15.50
2019-06-07T00:35:22.530Z,15.58
2019-06-07T00:36:23.235Z,15.51
2019-06-07T00:37:25.210Z,15.51
2019-06-07T00:38:22.146Z,15.50
2019-06-07T00:39:25.241Z,15.52
2019-06-07T00:40:31.334Z,15.45
2019-06-07T00:41:22.898Z,15.45
2019-06-07T00:42:24.223Z,15.54
2019-06-07T00:43:27.917Z,15.41
2019-06-07T00:44:23.513Z,15.35
2019-06-07T00:45:24.489Z,15.41
2019-06-07T00:46:25.283Z,15.43
2019-06-07T00:47:25.001Z,15.43
2019-06-07T00:48:31.325Z,15.35
2019-06-07T00:49:39.965Z,15.43
2019-06-07T00:50:24.324Z,15.36
2019-06-07T00:51:23.912Z,15.33
2019-06-07T00:53:12.854Z,15.29
2019-06-07T00:53:31.525Z,15.35
2019-06-07T00:54:24.824Z,15.47
2019-06-07T00:55:27.121Z,15.35
2019-06-07T00:56:23.545Z,15.35
2019-06-07T00:57:24.140Z,15.27
2019-06-07T00:58:27.169Z,15.35
2019-06-07T00:59:28.825Z,15.40
2019-06-07T01:00:25.558Z,15.30
2019-06-07T01:01:23.341Z,15.29
2019-06-07T01:02:25.930Z,15.30
2019-06-07T01:03:25.685Z,15.40
2019-06-07T01:04:23.591Z,15.33
2019-06-07T01:05:28.149Z,15.38
2019-06-07T01:06:23.473Z,15.29
2019-06-07T01:07:22.473Z,15.19
2019-06-07T01:08:25.751Z,15.07
2019-06-07T01:09:25.295Z,15.12
2019-06-07T01:10:46.990Z,15.07
2019-06-07T01:11:25.728Z,15.05
2019-06-07T01:12:23.871Z,15.03
2019-06-07T01:13:24.142Z,15.11
2019-06-07T01:14:24.524Z,15.05
2019-06-07T01:15:27.577Z,15.08
2019-06-07T01:16:24.328Z,15.11
2019-06-07T01:17:33.062Z,15.20
2019-06-07T01:18:43.418Z,15.08
2019-06-07T01:19:26.442Z,15.12
2019-06-07T01:20:24.363Z,15.10
2019-06-07T01:21:24.819Z,15.05
2019-06-07T01:22:23.576Z,15.10
2019-06-07T01:23:59.457Z,15.11
2019-06-07T01:24:25.420Z,15.07
2019-06-07T01:25:23.824Z,15.11
2019-06-07T01:26:23.774Z,15.10
2019-06-07T01:27:25.155Z,15.03
2019-06-07T01:28:24.277Z,15.10
2019-06-07T01:29:24.993Z,15.08
2019-06-07T01:30:24.173Z,15.10
2019-06-07T01:31:24.426Z,15.10
2019-06-07T01:32:24.656Z,15.01
2019-06-07T01:33:23.505Z,15.07
2019-06-07T01:34:25.686Z,14.96
2019-06-07T01:35:22.092Z,15.04
2019-06-07T01:36:22.354Z,15.05
2019-06-07T01:37:24.896Z,14.95
2019-06-07T01:38:24.974Z,14.95
2019-06-07T01:39:23.912Z,14.89
2019-06-07T01:40:27.801Z,14.86
2019-06-07T01:41:25.345Z,14.90
2019-06-07T01:42:24.578Z,14.96
2019-06-07T01:43:26.111Z,14.96
2019-06-07T01:44:24.815Z,14.89
2019-06-07T01:45:23.661Z,14.82
2019-06-07T01:46:23.395Z,14.85
2019-06-07T01:47:25.606Z,14.83
2019-06-07T01:48:25.389Z,14.83
2019-06-07T01:49:22.805Z,14.92
2019-06-07T01:50:23.349Z,14.83
2019-06-07T01:51:21.916Z,14.82
2019-06-07T01:52:23.516Z,14.66
2019-06-07T01:53:23.671Z,14.70
2019-06-07T01:55:24.988Z,14.78
2019-06-07T01:56:24.502Z,14.64
2019-06-07T01:57:38.288Z,14.74
2019-06-07T01:58:22.846Z,14.78
2019-06-07T01:59:21.953Z,14.66
2019-06-07T02:00:22.027Z,14.61
2019-06-07T02:01:21.708Z,14.70
2019-06-07T02:02:22.841Z,14.73
2019-06-07T02:03:22.344Z,14.73
2019-06-07T02:04:23.401Z,14.74
2019-06-07T02:05:22.893Z,14.74
2019-06-07T02:06:21.695Z,14.67
2019-06-07T02:07:25.753Z,14.74
2019-06-07T02:08:23.871Z,14.70
2019-06-07T02:09:21.035Z,14.73
2019-06-07T02:10:25.759Z,14.74
2019-06-07T02:11:23.493Z,14.74
2019-06-07T02:12:28.176Z,14.69
2019-06-07T02:13:23.599Z,14.67
2019-06-07T02:14:24.197Z,14.77
2019-06-07T02:15:22.773Z,14.71
2019-06-07T02:16:21.827Z,14.66
2019-06-07T02:17:23.998Z,14.71
2019-06-07T02:18:22.967Z,14.66
2019-06-07T02:19:22.001Z,14.64
2019-06-07T02:20:22.990Z,14.59
2019-06-07T02:21:23.267Z,14.70
2019-06-07T02:23:24.022Z,14.52
2019-06-07T02:24:24.851Z,14.59
2019-06-07T02:25:41.923Z,14.58
2019-06-07T02:26:22.956Z,14.53
2019-06-07T02:27:20.835Z,14.46
2019-06-07T02:28:30.617Z,14.53
2019-06-07T02:29:22.915Z,14.58
2019-06-07T02:30:40.328Z,14.52
2019-06-07T02:31:24.051Z,14.52
2019-06-07T02:32:21.766Z,14.49
2019-06-07T02:33:25.820Z,14.51
2019-06-07T02:34:21.657Z,14.51
2019-06-07T02:35:25.649Z,14.45
2019-06-07T02:36:25.672Z,14.49
2019-06-07T02:37:21.688Z,14.44
2019-06-07T02:38:23.108Z,14.41
2019-06-07T02:39:24.016Z,14.44
2019-06-07T02:40:22.010Z,14.31
2019-06-07T02:41:22.933Z,14.38
2019-06-07T02:42:26.140Z,14.36
2019-06-07T02:43:22.164Z,14.33
2019-06-07T02:44:20.494Z,14.19
2019-06-07T02:45:20.483Z,14.13
2019-06-07T02:46:28.132Z,14.13
2019-06-07T02:47:22.745Z,14.11
2019-06-07T02:48:20.474Z,14.16
2019-06-07T02:49:20.458Z,14.09
2019-06-07T02:50:20.423Z,14.22
2019-06-07T02:51:20.410Z,14.15
2019-06-07T02:52:20.474Z,14.05
2019-06-07T02:53:20.395Z,14.01
2019-06-07T02:54:20.424Z,14.01
2019-06-07T02:55:20.370Z,14.12
2019-06-07T02:56:39.108Z,14.00
2019-06-07T02:57:21.344Z,14.04
2019-06-07T02:58:20.344Z,13.86
2019-06-07T02:59:42.132Z,13.86
2019-06-07T03:00:47.498Z,13.88
2019-06-07T03:01:21.304Z,13.82
2019-06-07T03:02:20.294Z,13.88
2019-06-07T03:03:22.159Z,13.80
2019-06-07T03:04:20.292Z,13.76
2019-06-07T03:05:20.257Z,13.83
2019-06-07T03:06:20.245Z,13.86
2019-06-07T03:07:20.239Z,13.90
2019-06-07T03:08:20.223Z,13.71
2019-06-07T03:09:20.241Z,13.78
2019-06-07T03:10:20.226Z,13.78
2019-06-07T03:11:20.195Z,13.78
2019-06-07T03:12:20.193Z,13.91
2019-06-07T03:13:20.173Z,13.71
2019-06-07T03:14:20.185Z,13.82
2019-06-07T03:15:32.603Z,13.76
2019-06-07T03:16:21.145Z,13.64
2019-06-07T03:17:20.129Z,13.72
2019-06-07T03:18:20.120Z,13.60
2019-06-07T03:19:20.125Z,13.64
2019-06-07T03:20:20.092Z,13.63
2019-06-07T03:21:20.078Z,13.65
2019-06-07T03:22:20.065Z,13.71
2019-06-07T03:23:20.077Z,13.60
2019-06-07T03:24:20.070Z,13.68
2019-06-07T03:25:20.042Z,13.75
2019-06-07T03:26:20.025Z,13.72
2019-06-07T03:27:44.033Z,13.65
2019-06-07T03:28:21.000Z,13.63
2019-06-07T03:29:20.171Z,13.67
2019-06-07T03:30:38.972Z,13.65
2019-06-07T03:31:20.974Z,13.57
2019-06-07T03:32:19.977Z,13.58
2019-06-07T03:33:19.952Z,13.60
2019-06-07T03:34:19.972Z,13.57
2019-06-07T03:35:20.093Z,13.45
2019-06-07T03:36:25.445Z,13.51
2019-06-07T03:37:20.899Z,13.51
2019-06-07T03:38:19.888Z,13.51
2019-06-07T03:39:19.934Z,13.47
2019-06-07T03:40:19.893Z,13.51
2019-06-07T03:41:19.858Z,13.45
2019-06-07T03:42:19.844Z,13.55
2019-06-07T03:43:19.847Z,13.53
2019-06-07T03:44:19.826Z,13.57
2019-06-07T03:45:19.886Z,13.53
2019-06-07T03:46:19.799Z,13.46
2019-06-07T03:47:19.791Z,13.46
2019-06-07T03:48:19.778Z,13.61
2019-06-07T03:49:19.768Z,13.57
2019-06-07T03:50:19.784Z,13.57
2019-06-07T03:51:25.334Z,13.54
2019-06-07T03:52:20.730Z,13.65
2019-06-07T03:53:19.725Z,13.65
2019-06-07T03:54:19.713Z,13.61
2019-06-07T03:55:19.699Z,13.61
2019-06-07T03:56:19.732Z,13.60
2019-06-07T03:57:19.680Z,13.54
2019-06-07T03:58:47.901Z,13.64
2019-06-07T03:59:20.658Z,13.58
2019-06-07T04:00:19.641Z,13.60
2019-06-07T04:01:19.659Z,13.49
2019-06-07T04:02:19.619Z,13.53
2019-06-07T04:03:33.391Z,13.58
2019-06-07T04:04:20.599Z,13.68
2019-06-07T04:05:19.627Z,13.49
2019-06-07T04:06:19.576Z,13.54
2019-06-07T04:07:19.567Z,13.65
2019-06-07T04:08:19.563Z,13.67
2019-06-07T04:09:19.548Z,13.67
2019-06-07T04:10:19.606Z,13.55
2019-06-07T04:11:19.550Z,13.60
2019-06-07T04:12:19.511Z,13.68
2019-06-07T04:13:19.501Z,13.64
2019-06-07T04:14:19.484Z,13.63
2019-06-07T04:15:19.475Z,13.71
2019-06-07T04:16:19.488Z,13.65
2019-06-07T04:17:20.415Z,13.64
2019-06-07T04:18:19.442Z,13.73
2019-06-07T04:19:19.452Z,13.72
2019-06-07T04:20:19.424Z,13.76
2019-06-07T04:21:19.432Z,13.82
2019-06-07T04:22:19.396Z,13.71
2019-06-07T04:23:30.014Z,13.73
2019-06-07T04:24:20.596Z,13.75
2019-06-07T04:25:19.362Z,13.86
2019-06-07T04:26:19.375Z,13.79
2019-06-07T04:27:19.338Z,13.80
2019-06-07T04:28:19.334Z,13.90
2019-06-07T04:30:02.056Z,13.79
2019-06-07T04:30:20.346Z,13.90
2019-06-07T04:31:19.333Z,13.83
2019-06-07T04:32:19.297Z,13.85
2019-06-07T04:33:19.278Z,13.90
2019-06-07T04:34:19.267Z,13.83
2019-06-07T04:35:19.250Z,13.88
2019-06-07T04:36:37.372Z,13.94
2019-06-07T04:37:20.249Z,13.93
2019-06-07T04:38:19.217Z,13.98
2019-06-07T04:39:19.406Z,13.98
2019-06-07T04:40:19.210Z,13.90
2019-06-07T04:41:19.186Z,14.05
2019-06-07T04:42:19.256Z,13.97
2019-06-07T04:43:19.233Z,14.03
2019-06-07T04:44:19.154Z,14.04
2019-06-07T04:45:33.829Z,14.11
2019-06-07T04:46:20.127Z,14.04
2019-06-07T04:47:19.150Z,13.91
2019-06-07T04:48:19.132Z,14.08
2019-06-07T04:49:19.097Z,13.97
2019-06-07T04:50:19.090Z,14.03
2019-06-07T04:51:19.088Z,13.97
2019-06-07T04:52:19.092Z,13.93
2019-06-07T04:53:19.051Z,13.88
2019-06-07T04:54:19.107Z,13.94
2019-06-07T04:55:19.032Z,13.97
2019-06-07T04:56:19.015Z,13.98
2019-06-07T04:57:19.041Z,14.05
2019-06-07T04:58:19.003Z,14.03
2019-06-07T05:00:01.141Z,14.11
2019-06-07T05:00:48.503Z,14.04
2019-06-07T05:01:27.335Z,14.00
2019-06-07T05:02:19.972Z,14.09
2019-06-07T05:03:18.941Z,14.05
2019-06-07T05:04:18.926Z,14.09
2019-06-07T05:05:18.924Z,14.12
2019-06-07T05:06:18.922Z,14.26
2019-06-07T05:07:18.973Z,14.18
2019-06-07T05:08:27.909Z,14.21
2019-06-07T05:09:19.872Z,14.36
2019-06-07T05:10:18.874Z,14.44
2019-06-07T05:11:18.857Z,14.30
2019-06-07T05:12:18.890Z,14.23
2019-06-07T05:13:18.838Z,14.36
2019-06-07T05:14:18.823Z,14.23
2019-06-07T05:15:18.810Z,14.38
2019-06-07T05:16:18.793Z,14.36
2019-06-07T05:17:18.815Z,14.38
2019-06-07T05:18:18.772Z,14.40
2019-06-07T05:19:18.761Z,14.45
2019-06-07T05:20:18.755Z,14.55
2019-06-07T05:21:18.748Z,14.48
2019-06-07T05:22:18.758Z,14.53
2019-06-07T05:24:00.305Z,14.52
2019-06-07T05:24:19.702Z,14.63
2019-06-07T05:25:18.701Z,14.55
2019-06-07T05:26:18.680Z,14.69
2019-06-07T05:27:18.695Z,14.67
2019-06-07T05:28:18.686Z,14.69
2019-06-07T05:29:18.650Z,14.77
2019-06-07T05:30:57.798Z,14.82
2019-06-07T05:31:19.635Z,14.73
2019-06-07T05:32:18.622Z,14.82
2019-06-07T05:33:18.634Z,14.93
2019-06-07T05:34:18.590Z,14.90
2019-06-07T05:35:18.629Z,14.95
2019-06-07T05:36:18.568Z,14.96
2019-06-07T05:37:18.601Z,14.87
2019-06-07T05:38:18.577Z,14.86
2019-06-07T05:39:18.536Z,14.89
2019-06-07T05:40:18.531Z,14.89
2019-06-07T05:41:18.518Z,15.03
2019-06-07T05:42:18.508Z,14.96
2019-06-07T05:43:18.530Z,14.87
2019-06-07T05:44:18.481Z,15.04
2019-06-07T05:45:18.466Z,14.90
2019-06-07T05:46:18.462Z,14.97
2019-06-07T05:47:18.458Z,15.10
2019-06-07T05:48:18.460Z,15.15
2019-06-07T05:49:18.423Z,15.22
2019-06-07T05:50:39.153Z,15.19
2019-06-07T05:51:19.400Z,15.26
2019-06-07T05:52:18.406Z,15.33
2019-06-07T05:53:18.435Z,15.40
2019-06-07T05:54:18.366Z,15.43
2019-06-07T05:55:18.355Z,15.35
2019-06-07T05:56:18.372Z,15.43
2019-06-07T05:57:18.332Z,15.40
2019-06-07T05:58:18.631Z,15.43
2019-06-07T05:59:18.346Z,15.50
2019-06-07T06:00:18.300Z,15.44
2019-06-07T06:02:23.262Z,15.40
2019-06-07T06:03:19.292Z,15.54
2019-06-07T06:04:18.279Z,15.56
2019-06-07T06:05:33.911Z,15.60
2019-06-07T06:06:19.535Z,15.54
2019-06-07T06:07:18.224Z,15.63
2019-06-07T06:08:18.240Z,15.69
2019-06-07T06:09:18.236Z,15.72
2019-06-07T06:10:18.196Z,15.72
2019-06-07T06:11:18.179Z,15.70
2019-06-07T06:12:34.001Z,15.80
2019-06-07T06:13:19.155Z,15.78
2019-06-07T06:14:18.169Z,15.88
2019-06-07T06:15:18.138Z,15.81
2019-06-07T06:16:18.124Z,15.96
2019-06-07T06:17:18.108Z,15.99
2019-06-07T06:18:18.127Z,16.08
2019-06-07T06:19:18.115Z,16.06
2019-06-07T06:20:18.074Z,16.13
2019-06-07T06:21:20.181Z,16.10
2019-06-07T06:22:18.051Z,16.06
2019-06-07T06:23:18.053Z,16.14
2019-06-07T06:24:18.054Z,16.10
2019-06-07T06:25:34.439Z,16.16
2019-06-07T06:26:19.012Z,16.17
2019-06-07T06:28:02.160Z,16.13
2019-06-07T06:28:18.988Z,16.22
2019-06-07T06:29:18.016Z,16.22
2019-06-07T06:30:17.962Z,16.22
2019-06-07T06:31:17.953Z,16.36
2019-06-07T06:33:33.254Z,16.39
2019-06-07T06:34:18.990Z,16.42
2019-06-07T06:35:17.913Z,16.43
2019-06-07T06:36:18.203Z,16.51
2019-06-07T06:37:17.887Z,16.42
2019-06-07T06:38:17.988Z,16.58
2019-06-07T06:39:17.903Z,16.55
2019-06-07T06:40:17.908Z,16.58
2019-06-07T06:41:17.933Z,16.61
2019-06-07T06:42:17.839Z,16.62
2019-06-07T06:43:17.816Z,16.73
2019-06-07T06:44:17.973Z,16.62
2019-06-07T06:45:17.803Z,16.62
2019-06-07T06:46:37.422Z,16.72
2019-06-07T06:47:18.782Z,16.82
2019-06-07T06:48:17.770Z,16.76
2019-06-07T06:49:17.795Z,16.90
2019-06-07T06:50:17.743Z,16.91
2019-06-07T06:51:17.733Z,16.99
2019-06-07T06:52:17.721Z,16.91
2019-06-07T06:53:17.710Z,16.98
2019-06-07T06:54:39.008Z,16.97
2019-06-07T06:55:18.718Z,17.01
2019-06-07T06:56:17.847Z,17.09
2019-06-07T06:57:20.178Z,17.12
2019-06-07T06:58:17.648Z,17.14
2019-06-07T07:00:18.662Z,17.06
2019-06-07T07:01:17.628Z,17.20
2019-06-07T07:02:17.613Z,17.24
2019-06-07T07:04:18.589Z,17.24
2019-06-07T07:05:17.613Z,17.22
2019-06-07T07:06:25.793Z,17.35
2019-06-07T07:07:18.546Z,17.37
2019-06-07T07:08:17.542Z,17.43
2019-06-07T07:09:17.531Z,17.37
2019-06-07T07:10:17.550Z,17.43
2019-06-07T07:11:17.505Z,17.41
2019-06-07T07:12:17.491Z,17.53
2019-06-07T07:13:17.491Z,17.54
2019-06-07T07:14:17.483Z,17.47
2019-06-07T07:15:17.492Z,17.50
2019-06-07T07:16:17.454Z,17.59
2019-06-07T07:17:17.463Z,17.65
2019-06-07T07:18:17.424Z,17.66
2019-06-07T07:19:17.416Z,17.75
2019-06-07T07:20:17.425Z,17.73
2019-06-07T07:21:17.396Z,17.81
2019-06-07T07:22:17.390Z,17.75
2019-06-07T07:23:17.525Z,17.87
2019-06-07T07:24:21.550Z,17.91
2019-06-07T07:25:17.369Z,17.88
2019-06-07T07:26:17.357Z,17.94
2019-06-07T07:27:17.327Z,17.93
2019-06-07T07:28:17.321Z,17.94
2019-06-07T07:29:17.314Z,18.08
2019-06-07T07:30:36.250Z,17.91
2019-06-07T07:31:18.320Z,18.05
2019-06-07T07:32:17.274Z,18.21
2019-06-07T07:33:17.270Z,18.12
2019-06-07T07:34:34.699Z,18.17
2019-06-07T07:35:18.246Z,18.12
2019-06-07T07:36:37.606Z,18.31
2019-06-07T07:37:18.215Z,18.31
2019-06-07T07:38:17.204Z,18.34
2019-06-07T07:39:17.375Z,18.39
2019-06-07T07:41:18.198Z,18.41
2019-06-07T07:42:21.204Z,18.51
2019-06-07T07:43:17.148Z,18.43
2019-06-07T07:44:17.146Z,18.49
2019-06-07T07:45:17.170Z,18.41
2019-06-07T07:46:29.263Z,18.51
2019-06-07T07:47:18.104Z,18.57
2019-06-07T07:48:18.500Z,18.61
2019-06-07T07:49:17.082Z,18.67
2019-06-07T07:50:17.083Z,18.66
2019-06-07T07:51:17.216Z,18.76
2019-06-07T07:52:17.051Z,18.74
2019-06-07T07:53:17.043Z,18.74
2019-06-07T07:54:17.057Z,18.83
2019-06-07T07:55:17.074Z,18.75
2019-06-07T07:56:17.039Z,18.67
2019-06-07T07:57:17.027Z,18.66
2019-06-07T07:58:17.061Z,18.76
2019-06-07T07:59:16.973Z,18.64
2019-06-07T08:00:49.605Z,18.78
2019-06-07T08:01:17.945Z,18.76
2019-06-07T08:02:16.956Z,18.89
2019-06-07T08:03:16.921Z,18.88
2019-06-07T08:04:16.918Z,19.04
2019-06-07T08:05:28.870Z,18.97
2019-06-07T08:06:17.896Z,19.09
2019-06-07T08:07:16.902Z,19.04
2019-06-07T08:08:16.868Z,19.09
2019-06-07T08:09:16.856Z,19.07
2019-06-07T08:10:16.847Z,19.19
2019-06-07T08:11:16.846Z,19.15
2019-06-07T08:12:16.850Z,19.23
2019-06-07T08:13:25.418Z,19.34
2019-06-07T08:14:17.801Z,19.37
2019-06-07T08:15:16.794Z,19.34
2019-06-07T08:16:18.787Z,19.24
2019-06-07T08:17:16.803Z,19.23
2019-06-07T08:18:16.760Z,19.20
2019-06-07T08:19:16.748Z,19.27
2019-06-07T08:20:16.751Z,19.26
2019-06-07T08:21:25.896Z,19.32
2019-06-07T08:22:17.734Z,19.32
2019-06-07T08:23:16.713Z,19.27
2019-06-07T08:24:16.690Z,19.27
2019-06-07T08:25:16.688Z,19.41
2019-06-07T08:26:16.686Z,19.31
2019-06-07T08:27:25.792Z,19.34
2019-06-07T08:28:17.646Z,19.19
2019-06-07T08:29:16.638Z,19.22
2019-06-07T08:30:47.213Z,19.20
2019-06-07T08:31:17.611Z,19.38
2019-06-07T08:32:16.628Z,19.32
2019-06-07T08:33:25.933Z,19.30
2019-06-07T08:34:17.579Z,19.27
2019-06-07T08:36:02.612Z,19.49
2019-06-07T08:36:22.051Z,19.44
2019-06-07T08:37:17.582Z,19.45
2019-06-07T08:38:26.955Z,19.41
2019-06-07T08:39:17.556Z,19.56
2019-06-07T08:40:16.514Z,19.49
2019-06-07T08:41:16.507Z,19.37
2019-06-07T08:42:22.041Z,19.53
2019-06-07T08:43:20.555Z,19.57
2019-06-07T08:44:23.795Z,19.63
2019-06-07T08:45:17.477Z,19.44
2019-06-07T08:46:16.453Z,19.54
2019-06-07T08:47:20.615Z,19.62
2019-06-07T08:48:27.368Z,19.60
2019-06-07T08:49:17.414Z,19.60
2019-06-07T08:50:16.405Z,19.53
2019-06-07T08:51:16.388Z,19.63
2019-06-07T08:52:16.388Z,19.62
2019-06-07T08:53:16.395Z,19.67
2019-06-07T08:54:22.699Z,19.67
2019-06-07T08:55:17.348Z,19.77
2019-06-07T08:56:16.338Z,19.84
2019-06-07T08:57:21.323Z,19.89
2019-06-07T08:58:17.350Z,19.84
2019-06-07T08:59:16.297Z,19.93
2019-06-07T09:00:43.018Z,19.96
2019-06-07T09:01:17.276Z,20.02
2019-06-07T09:02:23.794Z,19.86
2019-06-07T09:03:17.283Z,19.87
2019-06-07T09:04:16.283Z,19.84
2019-06-07T09:05:16.235Z,19.90
2019-06-07T09:07:01.036Z,19.96
2019-06-07T09:07:19.907Z,20.07
2019-06-07T09:08:29.010Z,19.94
2019-06-07T09:09:17.187Z,19.99
2019-06-07T09:10:16.182Z,20.07
2019-06-07T09:11:16.165Z,20.15
2019-06-07T09:12:16.159Z,20.22
2019-06-07T09:13:16.152Z,20.17
2019-06-07T09:14:16.184Z,20.27
2019-06-07T09:15:23.612Z,20.36
2019-06-07T09:16:17.110Z,20.27
2019-06-07T09:17:16.101Z,20.34
2019-06-07T09:18:42.328Z,20.27
2019-06-07T09:19:17.103Z,20.41
2019-06-07T09:20:35.643Z,20.36
2019-06-07T09:21:17.051Z,20.46
2019-06-07T09:22:16.044Z,20.30
2019-06-07T09:23:17.572Z,20.37
2019-06-07T09:24:16.053Z,20.49
2019-06-07T09:25:21.005Z,20.44
2019-06-07T09:26:18.934Z,20.46
2019-06-07T09:27:15.993Z,20.46
2019-06-07T09:28:20.043Z,20.36
2019-06-07T09:29:15.999Z,20.49
2019-06-07T09:30:18.870Z,20.49
2019-06-07T09:31:15.976Z,20.49
2019-06-07T09:32:18.522Z,20.53
2019-06-07T09:33:15.918Z,20.68
2019-06-07T09:34:16.008Z,20.63
2019-06-07T09:35:17.432Z,20.58
2019-06-07T09:36:15.897Z,20.73
2019-06-07T09:38:03.127Z,20.64
2019-06-07T09:38:25.391Z,20.75
2019-06-07T09:39:16.897Z,20.65
2019-06-07T09:40:27.048Z,20.75
2019-06-07T09:41:16.830Z,20.73
2019-06-07T09:42:15.816Z,20.68
2019-06-07T09:44:00.148Z,20.67
2019-06-07T09:44:24.922Z,20.79
2019-06-07T09:45:16.826Z,20.79
2019-06-07T09:46:16.761Z,20.88
2019-06-07T09:47:31.052Z,20.85
2019-06-07T09:49:08.570Z,20.77
2019-06-07T09:49:30.546Z,20.80
2019-06-07T09:50:16.768Z,20.77
2019-06-07T09:51:20.046Z,20.79
2019-06-07T09:52:15.729Z,20.90
2019-06-07T09:53:22.673Z,20.95
2019-06-07T09:55:02.448Z,20.97
2019-06-07T09:55:24.481Z,21.01
2019-06-07T09:56:16.660Z,21.03
2019-06-07T09:57:17.591Z,21.14
2019-06-07T09:58:50.392Z,21.10
2019-06-07T09:59:16.791Z,21.13
2019-06-07T10:00:38.740Z,21.07
2019-06-07T10:01:16.603Z,21.25
2019-06-07T10:02:15.597Z,21.25
2019-06-07T10:03:21.143Z,21.16
2019-06-07T10:04:30.661Z,21.30
2019-06-07T10:05:16.632Z,21.38
2019-06-07T10:06:15.554Z,21.40
2019-06-07T10:07:30.670Z,21.35
2019-06-07T10:09:26.340Z,21.38
2019-06-07T10:11:16.524Z,21.50
2019-06-07T10:12:15.488Z,21.41
2019-06-07T10:13:15.468Z,21.34
2019-06-07T10:14:15.455Z,21.44
2019-06-07T10:15:15.446Z,21.43
2019-06-07T10:16:15.455Z,21.47
2019-06-07T10:17:15.420Z,21.38
2019-06-07T10:18:15.417Z,21.25
2019-06-07T10:19:15.403Z,21.32
2019-06-07T10:20:15.386Z,21.29
2019-06-07T10:21:15.724Z,21.45
2019-06-07T10:22:15.367Z,21.45
2019-06-07T10:23:15.354Z,21.53
2019-06-07T10:24:15.342Z,21.48
2019-06-07T10:25:15.329Z,21.47
2019-06-07T10:26:15.370Z,21.58
2019-06-07T10:27:15.318Z,21.65
2019-06-07T10:28:15.302Z,21.69
2019-06-07T10:29:15.295Z,21.90
2019-06-07T10:30:15.271Z,21.98
2019-06-07T10:31:15.313Z,21.98
2019-06-07T10:32:15.254Z,22.04
2019-06-07T10:33:15.243Z,22.16
2019-06-07T10:34:15.232Z,22.18
2019-06-07T10:35:16.547Z,22.22
2019-06-07T10:36:15.251Z,22.11
2019-06-07T10:37:15.867Z,22.12
2019-06-07T10:38:15.183Z,22.19
2019-06-07T10:39:15.176Z,22.06
2019-06-07T10:40:15.182Z,22.15
2019-06-07T10:41:15.173Z,22.18
2019-06-07T10:42:15.182Z,22.15
2019-06-07T10:43:15.127Z,22.11
2019-06-07T10:44:15.114Z,22.06
2019-06-07T10:45:15.105Z,22.12
2019-06-07T10:46:15.106Z,22.09
2019-06-07T10:47:15.122Z,22.01
2019-06-07T10:48:15.143Z,22.06
2019-06-07T10:49:15.057Z,22.04
2019-06-07T10:50:15.058Z,21.98
2019-06-07T10:51:15.133Z,21.94
2019-06-07T10:52:15.065Z,22.01
2019-06-07T10:53:15.021Z,22.16
2019-06-07T10:54:24.661Z,22.18
2019-06-07T10:55:15.991Z,22.21
2019-06-07T10:56:14.984Z,22.31
2019-06-07T10:57:16.183Z,22.25
2019-06-07T10:58:14.958Z,22.28
2019-06-07T10:59:14.951Z,22.36
2019-06-07T11:00:14.933Z,22.34
2019-06-07T11:01:14.929Z,22.19
2019-06-07T11:02:15.146Z,22.25
2019-06-07T11:03:14.897Z,22.28
2019-06-07T11:04:14.983Z,22.25
2019-06-07T11:05:14.880Z,22.33
2019-06-07T11:06:14.868Z,22.44
2019-06-07T11:07:14.889Z,22.49
2019-06-07T11:08:15.126Z,22.58
2019-06-07T11:09:14.850Z,22.61
2019-06-07T11:10:19.471Z,22.85
2019-06-07T11:11:15.818Z,22.77
2019-06-07T11:12:15.364Z,22.86
2019-06-07T11:13:14.836Z,22.89
2019-06-07T11:14:14.857Z,22.99
2019-06-07T11:15:15.047Z,22.92
2019-06-07T11:16:15.696Z,23.14
2019-06-07T11:17:15.720Z,23.17
2019-06-07T11:18:14.769Z,23.11
2019-06-07T11:19:17.767Z,23.14
2019-06-07T11:20:14.722Z,23.08
2019-06-07T11:21:14.701Z,23.13
2019-06-07T11:22:14.692Z,23.04
2019-06-07T11:23:14.711Z,23.10
2019-06-07T11:24:18.262Z,23.07
2019-06-07T11:25:15.669Z,23.06
2019-06-07T11:26:14.646Z,22.99
2019-06-07T11:27:16.394Z,23.03
2019-06-07T11:28:14.842Z,22.96
2019-06-07T11:29:15.126Z,23.10
2019-06-07T11:30:14.671Z,23.08
2019-06-07T11:31:15.066Z,23.18
2019-06-07T11:32:14.709Z,23.45
2019-06-07T11:33:16.390Z,23.42
2019-06-07T11:34:14.699Z,23.45
2019-06-07T11:35:15.515Z,23.46
2019-06-07T11:36:15.289Z,23.56
2019-06-07T11:37:16.191Z,23.61
2019-06-07T11:38:14.722Z,23.55
2019-06-07T11:39:15.137Z,23.59
2019-06-07T11:40:32.060Z,23.60
2019-06-07T11:41:15.946Z,23.52
2019-06-07T11:42:14.473Z,23.39
2019-06-07T11:43:14.990Z,23.31
2019-06-07T11:44:15.025Z,23.36
2019-06-07T11:45:15.444Z,23.39
2019-06-07T11:46:15.155Z,23.33
2019-06-07T11:47:14.622Z,23.48
2019-06-07T11:48:15.496Z,23.59
2019-06-07T11:49:19.887Z,23.70
2019-06-07T11:50:15.714Z,23.71
2019-06-07T11:51:14.931Z,23.89
2019-06-07T11:52:15.652Z,24.04
2019-06-07T11:53:14.673Z,23.92
2019-06-07T11:54:16.062Z,24.15
2019-06-07T11:55:15.821Z,24.10
2019-06-07T11:56:14.315Z,24.13
2019-06-07T11:57:15.161Z,24.15
2019-06-07T11:58:17.207Z,24.18
2019-06-07T11:59:15.419Z,24.16
2019-06-07T12:00:16.066Z,24.04
2019-06-07T12:01:15.057Z,24.11
2019-06-07T12:02:15.502Z,24.15
2019-06-07T12:03:15.860Z,24.15
2019-06-07T12:04:28.713Z,24.23
2019-06-07T12:05:18.422Z,24.29
2019-06-07T12:06:14.558Z,24.33
2019-06-07T12:07:15.935Z,24.36
2019-06-07T12:08:14.178Z,24.38
2019-06-07T12:09:14.508Z,24.45
2019-06-07T12:10:16.580Z,24.45
2019-06-07T12:11:14.440Z,24.40
2019-06-07T12:12:14.570Z,24.34
2019-06-07T12:13:15.559Z,24.22
2019-06-07T12:14:14.808Z,24.13
2019-06-07T12:15:15.010Z,24.06
2019-06-07T12:16:15.404Z,23.92
2019-06-07T12:17:15.291Z,23.81
2019-06-07T12:18:15.170Z,23.69
2019-06-07T12:19:15.479Z,23.71
2019-06-07T12:20:16.342Z,23.55
2019-06-07T12:21:14.071Z,23.37
2019-06-07T12:22:14.253Z,23.28
2019-06-07T12:23:14.230Z,23.26
2019-06-07T12:24:14.244Z,23.31
2019-06-07T12:25:18.980Z,23.34
2019-06-07T12:26:15.016Z,23.52
2019-06-07T12:27:14.766Z,23.61
2019-06-07T12:28:14.613Z,23.71
2019-06-07T12:29:14.922Z,24.01
2019-06-07T12:30:22.454Z,23.94
2019-06-07T12:31:15.131Z,24.10
2019-06-07T12:32:15.297Z,24.15
2019-06-07T12:33:15.123Z,24.29
2019-06-07T12:34:15.287Z,24.28
2019-06-07T12:35:13.902Z,24.43
2019-06-07T12:36:13.863Z,24.45
2019-06-07T12:37:16.844Z,24.51
2019-06-07T12:38:16.839Z,24.65
2019-06-07T12:39:13.962Z,24.63
2019-06-07T12:40:19.381Z,24.68
2019-06-07T12:41:15.931Z,24.66
2019-06-07T12:42:14.893Z,24.86
2019-06-07T12:43:14.589Z,24.86
2019-06-07T12:44:14.559Z,24.93
2019-06-07T12:45:30.744Z,24.93
2019-06-07T12:46:19.843Z,24.94
2019-06-07T12:47:15.060Z,24.90
2019-06-07T12:48:17.625Z,24.94
2019-06-07T12:49:15.016Z,24.94
2019-06-07T12:50:15.238Z,25.00
2019-06-07T12:51:15.081Z,25.00
2019-06-07T12:52:17.331Z,24.94
2019-06-07T12:53:13.786Z,24.94
2019-06-07T12:54:13.672Z,24.97
2019-06-07T12:55:14.105Z,25.00
2019-06-07T12:56:13.671Z,25.11
2019-06-07T12:57:14.050Z,25.23
2019-06-07T12:58:13.867Z,25.28
2019-06-07T12:59:13.957Z,25.38
2019-06-07T13:00:14.158Z,25.38
2019-06-07T13:01:13.917Z,25.38